createdAt,value
2023-02-15T00:01:33.441Z,2.04
2023-02-15T00:04:01.966Z,1.99
2023-02-15T00:06:30.774Z,1.95
2023-02-15T00:08:59.526Z,1.94
2023-02-15T00:11:50.638Z,1.89
2023-02-15T00:14:21.240Z,1.81
2023-02-15T00:16:52.104Z,1.85
2023-02-15T00:19:22.773Z,1.80
2023-02-15T00:21:51.399Z,1.87
2023-02-15T00:24:20.946Z,1.84
2023-02-15T00:26:50.073Z,1.74
2023-02-15T00:29:20.357Z,1.71
2023-02-15T00:31:49.188Z,1.63
2023-02-15T00:34:21.406Z,1.55
2023-02-15T00:36:50.437Z,1.50
2023-02-15T00:39:19.562Z,1.52
2023-02-15T00:41:48.349Z,1.54
2023-02-15T00:44:17.307Z,1.49
2023-02-15T00:46:45.720Z,1.51
2023-02-15T00:49:14.318Z,1.49
2023-02-15T00:51:44.212Z,1.47
2023-02-15T00:54:12.650Z,1.38
2023-02-15T00:56:41.080Z,1.36
2023-02-15T00:59:10.502Z,1.41
2023-02-15T01:01:39.200Z,1.33
2023-02-15T01:04:07.660Z,1.32
2023-02-15T01:06:36.072Z,1.28
2023-02-15T01:09:05.882Z,1.20
2023-02-15T01:11:34.293Z,1.24
2023-02-15T01:14:04.160Z,1.29
2023-02-15T01:16:33.005Z,1.30
2023-02-15T01:19:03.517Z,1.24
2023-02-15T01:21:35.175Z,1.25
2023-02-15T01:24:05.574Z,1.27
2023-02-15T01:26:33.959Z,1.25
2023-02-15T01:29:02.376Z,1.30
2023-02-15T01:31:30.937Z,1.30
2023-02-15T01:33:59.379Z,1.20
2023-02-15T01:36:27.993Z,1.10
2023-02-15T01:38:56.410Z,1.25
2023-02-15T01:41:27.519Z,1.20
2023-02-15T01:43:58.137Z,1.18
2023-02-15T01:46:32.506Z,1.13
2023-02-15T01:49:05.181Z,1.05
2023-02-15T01:51:36.758Z,1.11
2023-02-15T01:54:13.443Z,0.97
2023-02-15T01:56:44.073Z,0.93
2023-02-15T01:59:20.805Z,0.96
2023-02-15T02:01:50.664Z,0.96
2023-02-15T02:04:25.079Z,0.87
2023-02-15T02:06:55.284Z,0.90
2023-02-15T02:09:23.764Z,0.86
2023-02-15T02:11:55.027Z,0.77
2023-02-15T02:14:25.143Z,0.80
2023-02-15T02:16:58.845Z,0.83
2023-02-15T02:19:59.082Z,0.70
2023-02-15T02:22:55.819Z,0.62
2023-02-15T02:25:46.698Z,0.58
2023-02-15T02:28:34.584Z,0.50
2023-02-15T02:31:27.334Z,0.74
2023-02-15T02:34:07.547Z,0.62
2023-02-15T02:36:44.209Z,0.60
2023-02-15T02:39:23.822Z,0.49
2023-02-15T02:42:01.237Z,0.51
2023-02-15T02:44:36.794Z,0.49
2023-02-15T02:47:12.681Z,0.42
2023-02-15T02:49:44.681Z,0.42
2023-02-15T02:52:38.051Z,0.34
2023-02-15T02:55:11.548Z,0.33
2023-02-15T02:57:45.959Z,0.41
2023-02-15T03:00:16.980Z,0.47
2023-02-15T03:02:49.830Z,0.45
2023-02-15T03:05:26.209Z,0.34
2023-02-15T03:07:57.846Z,0.31
2023-02-15T03:10:27.060Z,0.29
2023-02-15T03:12:55.703Z,0.28
2023-02-15T03:15:50.410Z,0.34
2023-02-15T03:18:22.164Z,0.28
2023-02-15T03:20:53.303Z,0.27
2023-02-15T03:23:25.035Z,0.30
2023-02-15T03:25:58.232Z,0.28
2023-02-15T03:28:32.995Z,0.21
2023-02-15T03:31:05.784Z,0.25
2023-02-15T03:33:37.750Z,0.30
2023-02-15T03:36:13.770Z,0.29
2023-02-15T03:38:50.122Z,0.37
2023-02-15T03:41:21.823Z,0.27
2023-02-15T03:43:55.251Z,0.30
2023-02-15T03:46:30.391Z,0.24
2023-02-15T03:49:04.787Z,0.30
2023-02-15T03:51:38.841Z,0.23
2023-02-15T03:54:11.290Z,0.16
2023-02-15T03:56:42.471Z,0.12
2023-02-15T03:59:28.614Z,0.10
2023-02-15T04:02:08.569Z,0.07
2023-02-15T04:04:39.131Z,0.08
2023-02-15T04:07:10.193Z,0.02
2023-02-15T04:09:58.904Z,-0.02
2023-02-15T04:12:27.548Z,0.00
2023-02-15T04:15:13.407Z,0.04
2023-02-15T04:17:41.949Z,0.17
2023-02-15T04:20:28.652Z,0.21
2023-02-15T04:23:16.345Z,0.20
2023-02-15T04:25:44.923Z,0.12
2023-02-15T04:28:13.434Z,0.10
2023-02-15T04:30:41.818Z,0.13
2023-02-15T04:33:10.372Z,0.05
2023-02-15T04:35:38.770Z,0.06
2023-02-15T04:38:08.560Z,0.04
2023-02-15T04:40:36.921Z,-0.03
2023-02-15T04:43:05.251Z,-0.16
2023-02-15T04:45:33.855Z,-0.03
2023-02-15T04:48:02.223Z,0.02
2023-02-15T04:50:30.631Z,-0.01
2023-02-15T04:52:59.089Z,-0.06
2023-02-15T04:55:28.840Z,-0.08
2023-02-15T04:57:57.605Z,-0.11
2023-02-15T05:00:26.059Z,-0.10
2023-02-15T05:02:54.417Z,-0.08
2023-02-15T05:05:23.049Z,-0.18
2023-02-15T05:07:51.411Z,-0.13
2023-02-15T05:10:20.176Z,-0.20
2023-02-15T05:12:50.083Z,-0.20
2023-02-15T05:15:18.457Z,-0.22
2023-02-15T05:17:46.935Z,-0.25
2023-02-15T05:20:15.389Z,-0.29
2023-02-15T05:22:43.923Z,-0.24
2023-02-15T05:25:30.041Z,-0.18
2023-02-15T05:28:17.529Z,-0.22
2023-02-15T05:30:46.315Z,-0.29
2023-02-15T05:33:14.815Z,-0.28
2023-02-15T05:35:43.632Z,-0.38
2023-02-15T05:38:12.018Z,-0.34
2023-02-15T05:40:40.365Z,-0.32
2023-02-15T05:43:10.218Z,-0.39
2023-02-15T05:45:38.565Z,-0.44
2023-02-15T05:48:06.992Z,-0.40
2023-02-15T05:50:35.490Z,-0.43
2023-02-15T05:53:04.713Z,-0.43
2023-02-15T05:55:33.530Z,-0.43
2023-02-15T05:58:01.913Z,-0.48
2023-02-15T06:00:31.764Z,-0.44
2023-02-15T06:03:00.114Z,-0.43
2023-02-15T06:05:28.508Z,-0.39
2023-02-15T06:07:57.049Z,-0.38
2023-02-15T06:10:25.514Z,-0.44
2023-02-15T06:12:54.421Z,-0.48
2023-02-15T06:15:22.819Z,-0.43
2023-02-15T06:17:52.662Z,-0.45
2023-02-15T06:20:21.343Z,-0.45
2023-02-15T06:22:50.073Z,-0.47
2023-02-15T06:25:18.785Z,-0.46
2023-02-15T06:27:47.220Z,-0.53
2023-02-15T06:30:16.174Z,-0.56
2023-02-15T06:32:44.955Z,-0.53
2023-02-15T06:35:15.076Z,-0.48
2023-02-15T06:37:43.610Z,-0.51
2023-02-15T06:40:12.589Z,-0.52
2023-02-15T06:42:41.144Z,-0.53
2023-02-15T06:45:11.238Z,-0.60
2023-02-15T06:47:39.803Z,-0.63
2023-02-15T06:50:09.266Z,-0.60
2023-02-15T06:52:39.218Z,-0.54
2023-02-15T06:55:08.399Z,-0.49
2023-02-15T06:57:37.440Z,-0.39
2023-02-15T07:00:06.996Z,-0.26
2023-02-15T07:02:35.549Z,-0.22
2023-02-15T07:05:06.002Z,-0.16
2023-02-15T07:07:34.626Z,-0.09
2023-02-15T07:10:05.366Z,0.02
2023-02-15T07:12:46.613Z,0.24
2023-02-15T07:15:17.102Z,1.06
2023-02-15T07:17:46.657Z,1.98
2023-02-15T07:20:18.012Z,2.97
2023-02-15T07:22:52.116Z,4.08
2023-02-15T07:25:22.335Z,5.22
2023-02-15T07:27:57.017Z,6.25
2023-02-15T07:30:26.267Z,7.20
2023-02-15T07:33:14.710Z,8.13
2023-02-15T07:35:49.560Z,9.08
2023-02-15T07:38:18.651Z,9.60
2023-02-15T07:40:49.030Z,9.94
2023-02-15T07:43:17.665Z,10.26
2023-02-15T07:45:46.248Z,11.06
2023-02-15T07:48:14.930Z,11.60
2023-02-15T07:50:43.793Z,12.21
2023-02-15T07:53:12.550Z,12.43
2023-02-15T07:55:41.225Z,12.78
2023-02-15T07:58:11.123Z,13.55
2023-02-15T08:00:53.985Z,14.03
2023-02-15T08:03:27.792Z,14.86
2023-02-15T08:05:59.354Z,14.84
2023-02-15T08:08:31.931Z,15.19
2023-02-15T08:11:19.704Z,15.67
2023-02-15T08:14:00.171Z,16.01
2023-02-15T08:16:31.668Z,16.69
2023-02-15T08:19:03.405Z,17.66
2023-02-15T08:21:32.959Z,18.16
2023-02-15T08:24:01.567Z,18.52
2023-02-15T08:26:31.508Z,18.81
2023-02-15T08:29:01.986Z,20.32
2023-02-15T08:31:31.489Z,20.47
2023-02-15T08:34:00.277Z,20.38
2023-02-15T08:36:30.643Z,19.60
2023-02-15T08:39:00.312Z,19.89
2023-02-15T08:41:31.352Z,20.51
2023-02-15T08:44:03.470Z,20.87
2023-02-15T08:46:33.913Z,21.34
2023-02-15T08:49:03.079Z,21.15
2023-02-15T08:51:33.527Z,21.67
2023-02-15T08:54:03.620Z,22.56
2023-02-15T08:56:35.351Z,22.93
2023-02-15T08:59:06.402Z,23.32
2023-02-15T09:01:36.669Z,23.39
2023-02-15T09:04:09.643Z,22.90
2023-02-15T09:06:39.072Z,22.69
2023-02-15T09:09:09.016Z,22.15
2023-02-15T09:11:39.061Z,21.80
2023-02-15T09:14:14.368Z,21.18
2023-02-15T09:16:45.775Z,21.24
2023-02-15T09:19:14.793Z,21.74
2023-02-15T09:21:43.983Z,22.61
2023-02-15T09:24:16.333Z,22.64
2023-02-15T09:26:47.217Z,23.46
2023-02-15T09:29:18.604Z,22.80
2023-02-15T09:31:49.756Z,23.87
2023-02-15T09:34:21.803Z,23.18
2023-02-15T09:36:52.873Z,24.61
2023-02-15T09:39:24.703Z,24.67
2023-02-15T09:42:26.798Z,24.98
2023-02-15T09:45:23.832Z,24.48
2023-02-15T09:48:28.724Z,24.40
2023-02-15T09:51:09.808Z,22.62
2023-02-15T09:53:57.722Z,25.06
2023-02-15T09:56:32.906Z,24.51
2023-02-15T09:59:12.561Z,24.11
2023-02-15T10:01:56.480Z,25.18
2023-02-15T10:04:45.426Z,24.98
2023-02-15T10:07:26.527Z,26.43
2023-02-15T10:10:08.829Z,28.89
2023-02-15T10:12:59.550Z,29.34
2023-02-15T10:15:39.850Z,30.01
2023-02-15T10:18:25.430Z,31.02
2023-02-15T10:21:03.669Z,30.78
2023-02-15T10:23:44.796Z,30.98
2023-02-15T10:26:19.574Z,29.39
2023-02-15T10:28:51.635Z,28.71
2023-02-15T10:31:27.853Z,29.22
2023-02-15T10:34:16.842Z,29.65
2023-02-15T10:37:13.430Z,31.77
2023-02-15T10:39:59.788Z,32.26
2023-02-15T10:42:38.961Z,32.13
2023-02-15T10:45:21.321Z,31.72
2023-02-15T10:48:15.172Z,31.72
2023-02-15T10:50:51.444Z,31.96
2023-02-15T10:53:38.367Z,30.68
2023-02-15T10:56:16.369Z,30.66
2023-02-15T10:58:59.995Z,30.64
2023-02-15T11:01:37.098Z,31.41
2023-02-15T11:04:25.001Z,31.92
2023-02-15T11:06:58.690Z,32.32
2023-02-15T11:09:37.399Z,32.52
2023-02-15T11:12:14.444Z,32.87
2023-02-15T11:14:48.936Z,32.95
2023-02-15T11:17:21.623Z,32.51
2023-02-15T11:19:59.029Z,31.48
2023-02-15T11:22:30.090Z,30.27
2023-02-15T11:25:02.668Z,30.99
2023-02-15T11:27:34.822Z,29.92
2023-02-15T11:30:10.325Z,28.59
2023-02-15T11:32:42.128Z,28.49
2023-02-15T11:35:23.417Z,26.97
2023-02-15T11:38:00.686Z,27.15
2023-02-15T11:40:32.273Z,26.22
2023-02-15T11:43:06.181Z,26.23
2023-02-15T11:45:36.364Z,28.29
2023-02-15T11:48:13.007Z,29.87
2023-02-15T11:50:43.673Z,32.05
2023-02-15T11:53:16.664Z,32.75
2023-02-15T11:55:46.592Z,32.97
2023-02-15T11:58:35.146Z,32.93
2023-02-15T12:01:10.612Z,33.39
2023-02-15T12:03:47.961Z,32.33
2023-02-15T12:06:24.132Z,31.47
2023-02-15T12:09:07.204Z,30.98
2023-02-15T12:11:38.103Z,31.35
2023-02-15T12:14:09.958Z,30.02
2023-02-15T12:16:44.745Z,29.36
2023-02-15T12:19:27.344Z,27.98
2023-02-15T12:21:56.630Z,26.65
2023-02-15T12:24:29.504Z,28.54
2023-02-15T12:27:01.573Z,27.78
2023-02-15T12:29:35.204Z,25.59
2023-02-15T12:32:05.750Z,28.26
2023-02-15T12:34:40.470Z,27.71
2023-02-15T12:37:16.908Z,29.44
2023-02-15T12:39:58.199Z,30.24
2023-02-15T12:42:28.274Z,30.72
2023-02-15T12:45:00.140Z,29.43
2023-02-15T12:47:31.067Z,29.10
2023-02-15T12:50:17.948Z,28.92
2023-02-15T12:52:49.485Z,27.91
2023-02-15T12:55:24.988Z,26.91
2023-02-15T12:58:08.563Z,27.97
2023-02-15T13:00:37.816Z,27.71
2023-02-15T13:03:06.393Z,29.29
2023-02-15T13:05:39.460Z,26.96
2023-02-15T13:08:14.386Z,25.56
2023-02-15T13:10:56.116Z,23.82
2023-02-15T13:13:27.640Z,23.81
2023-02-15T13:16:00.447Z,26.43
2023-02-15T13:18:33.903Z,27.64
2023-02-15T13:21:10.620Z,26.49
2023-02-15T13:23:41.782Z,26.52
2023-02-15T13:26:17.896Z,26.64
2023-02-15T13:28:49.281Z,25.33
2023-02-15T13:31:21.305Z,25.12
2023-02-15T13:33:54.088Z,24.21
2023-02-15T13:36:29.346Z,23.93
2023-02-15T13:39:09.582Z,23.67
2023-02-15T13:41:50.372Z,25.78
2023-02-15T13:44:27.968Z,26.60
2023-02-15T13:47:14.147Z,28.13
2023-02-15T13:49:55.475Z,29.51
2023-02-15T13:52:26.012Z,27.08
2023-02-15T13:55:15.499Z,25.58
2023-02-15T13:58:03.414Z,23.01
2023-02-15T14:00:45.124Z,24.60
2023-02-15T14:03:32.976Z,25.24
2023-02-15T14:06:19.565Z,26.61
2023-02-15T14:09:05.273Z,28.02
2023-02-15T14:11:43.448Z,28.76
2023-02-15T14:14:35.173Z,26.30
2023-02-15T14:17:11.628Z,26.09
2023-02-15T14:19:47.000Z,25.47
2023-02-15T14:22:23.284Z,26.13
2023-02-15T14:25:16.185Z,25.94
2023-02-15T14:27:55.063Z,26.30
2023-02-15T14:30:29.237Z,25.56
2023-02-15T14:33:02.353Z,24.87
2023-02-15T14:35:32.441Z,24.51
2023-02-15T14:38:07.108Z,24.04
2023-02-15T14:41:00.463Z,24.08
2023-02-15T14:43:40.997Z,23.68
2023-02-15T14:46:18.368Z,22.90
2023-02-15T14:48:50.140Z,21.29
2023-02-15T14:51:57.745Z,19.38
2023-02-15T14:54:58.850Z,18.63
2023-02-15T14:57:36.423Z,17.48
2023-02-15T15:00:32.403Z,17.03
2023-02-15T15:03:02.816Z,16.69
2023-02-15T15:05:35.929Z,16.24
2023-02-15T15:08:06.478Z,16.10
2023-02-15T15:10:44.511Z,15.94
2023-02-15T15:13:50.399Z,15.64
2023-02-15T15:16:33.172Z,15.34
2023-02-15T15:19:04.242Z,15.01
2023-02-15T15:21:58.473Z,14.77
2023-02-15T15:24:53.147Z,14.60
2023-02-15T15:27:43.826Z,14.48
2023-02-15T15:31:04.154Z,14.38
2023-02-15T15:34:11.874Z,14.25
2023-02-15T15:37:22.831Z,14.04
2023-02-15T15:40:39.667Z,13.89
2023-02-15T15:44:02.422Z,13.80
2023-02-15T15:46:49.087Z,13.67
2023-02-15T15:49:20.991Z,13.55
2023-02-15T15:51:51.154Z,13.43
2023-02-15T15:54:21.781Z,13.39
2023-02-15T15:56:55.161Z,13.27
2023-02-15T15:59:26.860Z,13.13
2023-02-15T16:01:56.040Z,13.05
2023-02-15T16:04:27.387Z,13.05
2023-02-15T16:06:55.983Z,12.89
2023-02-15T16:09:26.607Z,12.76
2023-02-15T16:12:01.241Z,12.56
2023-02-15T16:14:33.777Z,12.37
2023-02-15T16:17:04.074Z,12.20
2023-02-15T16:19:36.054Z,12.03
2023-02-15T16:22:08.585Z,11.84
2023-02-15T16:24:53.371Z,11.64
2023-02-15T16:27:35.318Z,11.49
2023-02-15T16:30:24.234Z,11.37
2023-02-15T16:32:55.471Z,11.21
2023-02-15T16:35:25.177Z,11.06
2023-02-15T16:37:53.524Z,10.94
2023-02-15T16:40:45.228Z,10.77
2023-02-15T16:43:20.152Z,10.68
2023-02-15T16:45:49.072Z,10.54
2023-02-15T16:48:22.883Z,10.41
2023-02-15T16:50:55.105Z,10.29
2023-02-15T16:53:26.657Z,10.17
2023-02-15T16:55:57.302Z,10.00
2023-02-15T16:58:31.796Z,9.84
2023-02-15T17:01:03.681Z,9.70
2023-02-15T17:03:32.595Z,9.59
2023-02-15T17:06:03.728Z,9.51
2023-02-15T17:08:33.673Z,9.36
2023-02-15T17:11:17.980Z,9.25
2023-02-15T17:14:23.020Z,9.15
2023-02-15T17:16:54.659Z,9.02
2023-02-15T17:19:25.685Z,9.07
2023-02-15T17:21:56.857Z,8.99
2023-02-15T17:24:35.277Z,8.93
2023-02-15T17:27:09.327Z,8.80
2023-02-15T17:29:42.164Z,8.85
2023-02-15T17:32:19.851Z,8.70
2023-02-15T17:35:04.163Z,8.77
2023-02-15T17:37:44.344Z,8.82
2023-02-15T17:40:21.614Z,8.87
2023-02-15T17:42:50.374Z,8.92
2023-02-15T17:45:21.140Z,9.13
2023-02-15T17:47:50.849Z,9.39
2023-02-15T17:50:23.322Z,9.46
2023-02-15T17:52:53.878Z,9.56
2023-02-15T17:55:38.816Z,9.57
2023-02-15T17:58:10.100Z,9.46
2023-02-15T18:01:00.365Z,9.39
2023-02-15T18:03:59.086Z,9.45
2023-02-15T18:06:45.786Z,9.57
2023-02-15T18:09:34.002Z,9.61
2023-02-15T18:12:02.975Z,9.52
2023-02-15T18:14:31.643Z,9.51
2023-02-15T18:17:01.350Z,9.58
2023-02-15T18:19:29.771Z,9.59
2023-02-15T18:21:58.180Z,9.42
2023-02-15T18:24:27.725Z,9.38
2023-02-15T18:26:58.105Z,9.29
2023-02-15T18:29:26.466Z,9.26
2023-02-15T18:31:57.843Z,9.16
2023-02-15T18:34:30.733Z,9.17
2023-02-15T18:37:02.443Z,9.13
2023-02-15T18:39:39.971Z,9.03
2023-02-15T18:42:20.397Z,8.99
2023-02-15T18:44:49.087Z,8.96
2023-02-15T18:47:17.544Z,8.94
2023-02-15T18:49:47.357Z,8.97
2023-02-15T18:52:17.926Z,8.99
2023-02-15T18:54:47.019Z,8.93
2023-02-15T18:57:17.097Z,8.89
2023-02-15T18:59:45.483Z,8.71
2023-02-15T19:02:14.689Z,8.56
2023-02-15T19:04:43.093Z,8.43
2023-02-15T19:07:18.748Z,8.33
2023-02-15T19:09:53.222Z,8.38
2023-02-15T19:12:21.771Z,8.39
2023-02-15T19:14:51.820Z,8.53
2023-02-15T19:17:22.721Z,8.51
2023-02-15T19:19:52.715Z,8.49
2023-02-15T19:22:26.792Z,8.56
2023-02-15T19:24:58.113Z,8.53
2023-02-15T19:27:29.872Z,8.52
2023-02-15T19:30:00.651Z,8.47
2023-02-15T19:32:30.522Z,8.58
2023-02-15T19:34:58.970Z,8.48
2023-02-15T19:37:37.198Z,8.36
2023-02-15T19:40:08.935Z,8.36
2023-02-15T19:42:37.253Z,8.29
2023-02-15T19:45:14.598Z,8.22
2023-02-15T19:47:43.596Z,8.25
2023-02-15T19:50:16.482Z,8.16
2023-02-15T19:52:47.416Z,8.09
2023-02-15T19:55:24.208Z,8.12
2023-02-15T19:57:55.337Z,8.08
2023-02-15T20:00:27.054Z,8.01
2023-02-15T20:02:56.735Z,7.92
2023-02-15T20:05:27.431Z,7.74
2023-02-15T20:07:58.275Z,7.66
2023-02-15T20:10:30.059Z,7.69
2023-02-15T20:12:59.452Z,7.53
2023-02-15T20:15:29.531Z,7.71
2023-02-15T20:17:59.593Z,7.81
2023-02-15T20:20:33.150Z,7.71
2023-02-15T20:23:03.272Z,7.76
2023-02-15T20:25:34.148Z,7.67
2023-02-15T20:28:02.969Z,7.69
2023-02-15T20:30:32.960Z,7.67
2023-02-15T20:33:01.395Z,7.58
2023-02-15T20:35:30.250Z,7.40
2023-02-15T20:38:01.250Z,7.18
2023-02-15T20:40:33.432Z,6.96
2023-02-15T20:43:02.585Z,6.79
2023-02-15T20:45:33.721Z,6.62
2023-02-15T20:48:02.551Z,6.57
2023-02-15T20:50:33.308Z,6.42
2023-02-15T20:53:03.149Z,6.31
2023-02-15T20:55:33.415Z,6.29
2023-02-15T20:58:01.954Z,6.30
2023-02-15T21:00:35.287Z,6.31
2023-02-15T21:03:11.546Z,6.34
2023-02-15T21:05:40.622Z,6.25
2023-02-15T21:08:14.116Z,6.22
2023-02-15T21:10:45.570Z,6.17
2023-02-15T21:13:21.356Z,6.16
2023-02-15T21:15:51.045Z,6.15
2023-02-15T21:18:22.681Z,6.12
2023-02-15T21:20:53.841Z,6.16
2023-02-15T21:23:25.861Z,6.20
2023-02-15T21:25:57.241Z,6.12
2023-02-15T21:28:27.891Z,6.04
2023-02-15T21:30:58.527Z,6.03
2023-02-15T21:33:27.589Z,5.98
2023-02-15T21:35:58.206Z,6.06
2023-02-15T21:38:30.285Z,5.98
2023-02-15T21:41:20.288Z,5.92
2023-02-15T21:44:06.918Z,5.83
2023-02-15T21:46:53.114Z,5.80
2023-02-15T21:49:21.852Z,5.78
2023-02-15T21:52:09.625Z,5.81
2023-02-15T21:54:39.952Z,6.04
2023-02-15T21:57:15.146Z,5.94
2023-02-15T21:59:43.995Z,5.98
2023-02-15T22:02:36.163Z,5.97
2023-02-15T22:05:16.358Z,5.96
2023-02-15T22:08:03.172Z,5.98
2023-02-15T22:10:42.079Z,5.82
2023-02-15T22:13:18.543Z,5.73
2023-02-15T22:15:52.982Z,5.47
2023-02-15T22:18:26.303Z,5.44
2023-02-15T22:21:01.079Z,5.29
2023-02-15T22:23:56.929Z,5.29
2023-02-15T22:26:26.374Z,5.33
2023-02-15T22:29:02.226Z,5.46
2023-02-15T22:31:31.311Z,5.56
2023-02-15T22:34:05.591Z,5.68
2023-02-15T22:36:40.096Z,5.82
2023-02-15T22:39:08.646Z,5.82
2023-02-15T22:41:37.095Z,5.97
2023-02-15T22:44:07.050Z,6.00
2023-02-15T22:46:35.800Z,5.94
2023-02-15T22:49:04.412Z,6.03
2023-02-15T22:51:32.791Z,5.94
2023-02-15T22:54:01.364Z,6.04
2023-02-15T22:56:37.951Z,6.08
2023-02-15T22:59:14.981Z,6.18
2023-02-15T23:01:43.690Z,6.16
2023-02-15T23:04:18.416Z,6.16
2023-02-15T23:06:47.432Z,6.19
2023-02-15T23:09:16.277Z,6.23
2023-02-15T23:11:45.825Z,6.19
2023-02-15T23:14:27.209Z,6.19
2023-02-15T23:16:56.035Z,6.17
2023-02-15T23:19:24.447Z,6.08
2023-02-15T23:21:53.349Z,6.05
2023-02-15T23:24:23.882Z,6.17
2023-02-15T23:26:52.640Z,6.14
2023-02-15T23:29:24.326Z,5.96
2023-02-15T23:31:54.529Z,5.99
2023-02-15T23:34:27.556Z,5.86
2023-02-15T23:36:56.582Z,5.69
2023-02-15T23:39:44.799Z,5.68
2023-02-15T23:42:16.653Z,5.62
2023-02-15T23:44:47.777Z,5.67
2023-02-15T23:47:41.652Z,5.58
2023-02-15T23:50:17.704Z,5.48
2023-02-15T23:52:46.556Z,5.44
2023-02-15T23:55:15.848Z,5.42
2023-02-15T23:57:45.341Z,5.32
